Anaktuvuk Pass, Alaska
Current Conditions -  °F | °C
As of 9:56 PM on Saturday 25 Oct 2014 (Local Time) from PAKP Reporting Station
Overcast Overcast  
Wind Chill:   Ceiling: 2600
Heat Index: 16°   Visibility: 8mi
Dew Point:   Wind: 16mph
Humidity: 73%   Direction: 240°WSW
Pressure: 29.64"   Gusts: NA
Location:  68.14°N, 151.74°W
Report Text: PAKP 260556Z AUTO 24014KT 8SM OVC026 M09/M13 A2964 RMK AO1 11090 21110 57003
Loading
Personal Weather Stations






























Interactive Weather Map
Tropical Storm Tracking
New forecast layout! Learn more

10-Day Weather Forecast

Advertisements
Track Severe Weather on mobile